createdAt,value
2022-08-26T00:00:35.874Z,0.00
2022-08-26T00:01:35.869Z,0.00
2022-08-26T00:02:36.015Z,0.00
2022-08-26T00:03:35.904Z,0.00
2022-08-26T00:04:35.822Z,0.00
2022-08-26T00:05:35.829Z,0.00
2022-08-26T00:06:35.810Z,0.00
2022-08-26T00:07:35.879Z,0.00
2022-08-26T00:08:35.802Z,0.00
2022-08-26T00:09:39.022Z,0.00
2022-08-26T00:10:35.774Z,0.00
2022-08-26T00:11:35.795Z,0.00
2022-08-26T00:12:37.779Z,0.00
2022-08-26T00:13:35.754Z,0.00
2022-08-26T00:14:35.749Z,0.00
2022-08-26T00:15:35.758Z,0.00
2022-08-26T00:16:35.853Z,0.00
2022-08-26T00:17:35.720Z,0.00
2022-08-26T00:18:38.685Z,0.00
2022-08-26T00:19:35.685Z,0.00
2022-08-26T00:20:35.674Z,0.00
2022-08-26T00:21:35.673Z,0.00
2022-08-26T00:22:35.677Z,0.00
2022-08-26T00:23:35.645Z,0.00
2022-08-26T00:24:35.617Z,0.00
2022-08-26T00:25:35.643Z,0.00
2022-08-26T00:26:35.642Z,0.00
2022-08-26T00:27:35.633Z,0.00
2022-08-26T00:28:35.608Z,0.00
2022-08-26T00:29:37.467Z,0.00
2022-08-26T00:30:35.574Z,0.00
2022-08-26T00:31:35.611Z,0.00
2022-08-26T00:32:35.620Z,0.00
2022-08-26T00:33:35.610Z,0.00
2022-08-26T00:34:35.706Z,0.00
2022-08-26T00:35:36.203Z,0.00
2022-08-26T00:36:35.657Z,0.00
2022-08-26T00:37:35.505Z,0.00
2022-08-26T00:38:35.483Z,0.00
2022-08-26T00:39:35.486Z,0.00
2022-08-26T00:40:35.604Z,0.00
2022-08-26T00:41:35.458Z,0.00
2022-08-26T00:42:35.454Z,0.00
2022-08-26T00:43:46.325Z,0.00
2022-08-26T00:44:35.597Z,0.00
2022-08-26T00:45:35.444Z,0.00
2022-08-26T00:46:35.405Z,0.00
2022-08-26T00:47:35.412Z,0.00
2022-08-26T00:48:35.381Z,0.00
2022-08-26T00:49:35.381Z,0.00
2022-08-26T00:50:35.373Z,0.00
2022-08-26T00:51:35.368Z,0.00
2022-08-26T00:52:35.369Z,0.00
2022-08-26T00:53:35.323Z,0.00
2022-08-26T00:54:35.362Z,0.00
2022-08-26T00:55:38.217Z,0.00
2022-08-26T00:56:35.333Z,0.00
2022-08-26T00:57:35.335Z,0.00
2022-08-26T00:58:35.319Z,0.00
2022-08-26T00:59:35.264Z,0.00
2022-08-26T01:00:35.270Z,0.00
2022-08-26T01:01:35.362Z,0.00
2022-08-26T01:02:35.467Z,0.00
2022-08-26T01:03:35.291Z,0.00
2022-08-26T01:04:35.289Z,0.00
2022-08-26T01:05:35.230Z,0.00
2022-08-26T01:06:35.210Z,0.00
2022-08-26T01:07:35.200Z,0.00
2022-08-26T01:08:35.208Z,0.00
2022-08-26T01:09:35.185Z,0.00
2022-08-26T01:10:35.173Z,0.00
2022-08-26T01:11:35.182Z,0.00
2022-08-26T01:12:35.145Z,0.00
2022-08-26T01:13:35.146Z,0.00
2022-08-26T01:14:35.145Z,0.00
2022-08-26T01:15:35.121Z,0.00
2022-08-26T01:16:35.173Z,0.00
2022-08-26T01:17:35.075Z,0.00
2022-08-26T01:18:35.199Z,0.00
2022-08-26T01:19:35.063Z,0.00
2022-08-26T01:20:35.086Z,0.00
2022-08-26T01:21:35.094Z,0.00
2022-08-26T01:22:35.049Z,0.00
2022-08-26T01:23:35.041Z,0.00
2022-08-26T01:24:35.022Z,0.00
2022-08-26T01:25:35.026Z,0.00
2022-08-26T01:26:35.005Z,0.00
2022-08-26T01:27:34.990Z,0.00
2022-08-26T01:28:35.019Z,0.00
2022-08-26T01:29:34.999Z,0.00
2022-08-26T01:30:34.994Z,0.00
2022-08-26T01:31:34.988Z,0.00
2022-08-26T01:32:34.954Z,0.00
2022-08-26T01:33:42.130Z,0.00
2022-08-26T01:34:34.937Z,0.00
2022-08-26T01:35:34.894Z,0.00
2022-08-26T01:36:34.954Z,0.00
2022-08-26T01:37:34.878Z,0.00
2022-08-26T01:38:34.914Z,0.00
2022-08-26T01:39:34.898Z,0.00
2022-08-26T01:40:34.866Z,0.00
2022-08-26T01:41:34.860Z,0.00
2022-08-26T01:42:34.837Z,0.00
2022-08-26T01:43:34.846Z,0.00
2022-08-26T01:44:35.023Z,0.00
2022-08-26T01:45:34.855Z,0.00
2022-08-26T01:46:34.816Z,0.00
2022-08-26T01:47:34.790Z,0.00
2022-08-26T01:48:34.793Z,0.00
2022-08-26T01:49:34.804Z,0.00
2022-08-26T01:50:34.817Z,0.00
2022-08-26T01:51:34.729Z,0.00
2022-08-26T01:52:34.757Z,0.00
2022-08-26T01:53:34.764Z,0.00
2022-08-26T01:54:34.728Z,0.00
2022-08-26T01:55:34.696Z,0.00
2022-08-26T01:56:36.643Z,0.00
2022-08-26T01:57:34.675Z,0.00
2022-08-26T01:58:34.677Z,0.00
2022-08-26T01:59:34.690Z,0.00
2022-08-26T02:00:34.762Z,0.00
2022-08-26T02:01:34.648Z,0.00
2022-08-26T02:02:34.663Z,0.00
2022-08-26T02:03:34.651Z,0.00
2022-08-26T02:04:34.654Z,0.00
2022-08-26T02:05:34.638Z,0.00
2022-08-26T02:06:34.581Z,0.00
2022-08-26T02:07:34.606Z,0.00
2022-08-26T02:08:34.599Z,0.00
2022-08-26T02:09:41.137Z,0.00
2022-08-26T02:10:34.603Z,0.00
2022-08-26T02:11:34.559Z,0.00
2022-08-26T02:12:34.592Z,0.00
2022-08-26T02:13:35.117Z,0.00
2022-08-26T02:14:34.514Z,0.00
2022-08-26T02:15:34.520Z,0.00
2022-08-26T02:16:34.630Z,0.00
2022-08-26T02:17:34.487Z,0.00
2022-08-26T02:18:34.466Z,0.00
2022-08-26T02:19:34.447Z,0.00
2022-08-26T02:20:34.501Z,0.00
2022-08-26T02:21:34.635Z,0.00
2022-08-26T02:22:34.456Z,0.00
2022-08-26T02:24:28.804Z,0.00
2022-08-26T02:26:40.412Z,0.00
2022-08-26T02:27:41.108Z,0.00
2022-08-26T02:30:23.276Z,0.00
2022-08-26T02:31:24.299Z,0.00
2022-08-26T02:32:24.269Z,0.00
2022-08-26T02:33:24.269Z,0.00
2022-08-26T02:34:24.316Z,0.00
2022-08-26T02:35:24.392Z,0.00
2022-08-26T02:36:24.200Z,0.00
2022-08-26T02:37:24.259Z,0.00
2022-08-26T02:38:24.616Z,0.00
2022-08-26T02:39:24.184Z,0.00
2022-08-26T02:40:24.661Z,0.00
2022-08-26T02:41:24.174Z,0.00
2022-08-26T02:42:24.160Z,0.00
2022-08-26T02:43:31.318Z,0.00
2022-08-26T02:44:24.138Z,0.00
2022-08-26T02:45:24.146Z,0.00
2022-08-26T02:46:30.071Z,0.00
2022-08-26T02:47:24.839Z,0.00
2022-08-26T02:48:24.074Z,0.00
2022-08-26T02:49:24.078Z,0.00
2022-08-26T02:50:24.071Z,0.00
2022-08-26T02:51:24.086Z,0.00
2022-08-26T02:52:24.040Z,0.00
2022-08-26T02:53:25.359Z,0.00
2022-08-26T02:54:24.003Z,0.00
2022-08-26T02:55:24.631Z,0.00
2022-08-26T02:56:24.009Z,0.00
2022-08-26T02:57:24.030Z,0.00
2022-08-26T02:58:23.983Z,0.00
2022-08-26T02:59:24.439Z,0.00
2022-08-26T03:00:24.036Z,0.00
2022-08-26T03:02:14.985Z,0.00
2022-08-26T03:03:15.880Z,0.00
2022-08-26T03:04:15.917Z,0.00
2022-08-26T03:05:15.876Z,0.00
2022-08-26T03:06:15.879Z,0.00
2022-08-26T03:07:15.902Z,0.00
2022-08-26T03:08:15.979Z,0.00
2022-08-26T03:09:18.559Z,0.00
2022-08-26T03:10:15.829Z,0.00
2022-08-26T03:11:15.874Z,0.00
2022-08-26T03:12:15.791Z,0.00
2022-08-26T03:13:15.872Z,0.00
2022-08-26T03:14:15.782Z,0.00
2022-08-26T03:15:17.813Z,0.00
2022-08-26T03:16:15.814Z,0.00
2022-08-26T03:17:15.877Z,0.00
2022-08-26T03:18:15.755Z,0.00
2022-08-26T03:19:17.513Z,0.00
2022-08-26T03:20:15.731Z,0.00
2022-08-26T03:21:15.694Z,0.00
2022-08-26T03:22:15.706Z,0.00
2022-08-26T03:23:15.701Z,0.00
2022-08-26T03:24:15.697Z,0.00
2022-08-26T03:25:15.662Z,0.00
2022-08-26T03:26:15.844Z,0.00
2022-08-26T03:27:15.648Z,0.00
2022-08-26T03:28:15.636Z,0.00
2022-08-26T03:29:15.624Z,0.00
2022-08-26T03:30:15.615Z,0.00
2022-08-26T03:31:15.695Z,0.00
2022-08-26T03:32:15.594Z,0.00
2022-08-26T03:33:15.776Z,0.00
2022-08-26T03:34:15.568Z,0.00
2022-08-26T03:35:15.664Z,0.00
2022-08-26T03:36:15.588Z,0.00
2022-08-26T03:37:16.211Z,0.00
2022-08-26T03:38:15.533Z,0.00
2022-08-26T03:39:15.652Z,0.00
2022-08-26T03:40:15.542Z,0.00
2022-08-26T03:41:16.135Z,0.00
2022-08-26T03:42:15.474Z,0.00
2022-08-26T03:43:15.495Z,0.00
2022-08-26T03:44:15.490Z,0.00
2022-08-26T03:45:15.520Z,0.00
2022-08-26T03:46:15.494Z,0.00
2022-08-26T03:47:15.449Z,0.00
2022-08-26T03:48:15.455Z,0.00
2022-08-26T03:49:15.436Z,0.00
2022-08-26T03:50:15.432Z,0.00
2022-08-26T03:51:18.314Z,0.00
2022-08-26T03:52:16.098Z,0.00
2022-08-26T03:53:15.409Z,0.00
2022-08-26T03:54:15.396Z,0.00
2022-08-26T03:55:15.366Z,0.00
2022-08-26T03:56:15.341Z,0.00
2022-08-26T03:57:15.350Z,0.00
2022-08-26T03:58:15.307Z,1.00
2022-08-26T03:59:15.357Z,0.00
2022-08-26T04:00:15.278Z,1.00
2022-08-26T04:01:15.678Z,1.00
2022-08-26T04:02:15.246Z,1.00
2022-08-26T04:03:18.611Z,0.00
2022-08-26T04:04:15.606Z,0.00
2022-08-26T04:05:15.203Z,2.00
2022-08-26T04:06:15.173Z,1.00
2022-08-26T04:07:15.203Z,1.00
2022-08-26T04:08:15.221Z,2.00
2022-08-26T04:09:15.170Z,1.00
2022-08-26T04:10:15.146Z,1.00
2022-08-26T04:11:15.137Z,5.00
2022-08-26T04:12:15.149Z,10.00
2022-08-26T04:13:15.160Z,7.00
2022-08-26T04:14:17.601Z,8.00
2022-08-26T04:15:15.134Z,8.00
2022-08-26T04:16:15.151Z,6.00
2022-08-26T04:17:15.078Z,12.00
2022-08-26T04:18:15.045Z,16.00
2022-08-26T04:19:15.092Z,16.00
2022-08-26T04:20:16.169Z,23.00
2022-08-26T04:21:15.363Z,22.00
2022-08-26T04:22:15.073Z,21.00
2022-08-26T04:23:15.013Z,30.00
2022-08-26T04:24:15.028Z,39.00
2022-08-26T04:25:14.990Z,40.00
2022-08-26T04:26:15.009Z,45.00
2022-08-26T04:27:14.965Z,55.00
2022-08-26T04:28:14.976Z,64.00
2022-08-26T04:29:14.957Z,68.00
2022-08-26T04:30:14.971Z,77.00
2022-08-26T04:31:14.970Z,86.00
2022-08-26T04:32:14.933Z,97.00
2022-08-26T04:33:14.944Z,106.00
2022-08-26T04:34:14.930Z,115.00
2022-08-26T04:35:14.905Z,123.00
2022-08-26T04:36:14.864Z,134.00
2022-08-26T04:37:14.873Z,143.00
2022-08-26T04:38:14.875Z,154.00
2022-08-26T04:39:14.890Z,164.00
2022-08-26T04:40:14.873Z,175.00
2022-08-26T04:41:17.089Z,183.00
2022-08-26T04:42:14.802Z,197.00
2022-08-26T04:43:14.850Z,206.00
2022-08-26T04:44:14.805Z,221.00
2022-08-26T04:45:14.816Z,232.00
2022-08-26T04:46:14.891Z,247.00
2022-08-26T04:47:14.798Z,260.00
2022-08-26T04:48:16.802Z,272.00
2022-08-26T04:49:14.794Z,286.00
2022-08-26T04:50:14.871Z,299.00
2022-08-26T04:51:14.753Z,315.00
2022-08-26T04:52:14.726Z,334.00
2022-08-26T04:53:14.722Z,345.00
2022-08-26T04:54:14.700Z,360.00
2022-08-26T04:55:14.701Z,374.00
2022-08-26T04:56:14.711Z,391.00
2022-08-26T04:57:14.701Z,407.00
2022-08-26T04:58:14.717Z,423.00
2022-08-26T04:59:16.674Z,439.00
2022-08-26T05:00:14.822Z,456.00
2022-08-26T05:02:07.252Z,499.00
2022-08-26T05:03:10.218Z,505.00
2022-08-26T05:04:08.101Z,520.00
2022-08-26T05:05:59.778Z,571.00
2022-08-26T05:07:02.305Z,579.00
2022-08-26T05:08:00.607Z,600.00
2022-08-26T05:09:02.124Z,623.00
2022-08-26T05:10:00.321Z,650.00
2022-08-26T05:11:00.425Z,677.00
2022-08-26T05:12:00.477Z,698.00
2022-08-26T05:13:00.314Z,718.00
2022-08-26T05:14:02.333Z,734.00
2022-08-26T05:15:00.372Z,750.00
2022-08-26T05:16:01.182Z,769.00
2022-08-26T05:17:00.272Z,787.00
2022-08-26T05:18:00.256Z,808.00
2022-08-26T05:19:00.328Z,828.00
2022-08-26T05:20:00.225Z,856.00
2022-08-26T05:21:00.266Z,882.00
2022-08-26T05:22:00.608Z,902.00
2022-08-26T05:23:01.605Z,932.00
2022-08-26T05:24:00.197Z,972.00
2022-08-26T05:25:00.320Z,1005.00
2022-08-26T05:26:00.953Z,1030.00
2022-08-26T05:27:00.253Z,1050.00
2022-08-26T05:28:09.937Z,1070.00
2022-08-26T05:29:24.194Z,1097.00
2022-08-26T05:30:00.145Z,1111.00
2022-08-26T05:31:00.186Z,1115.00
2022-08-26T05:32:07.004Z,1136.00
2022-08-26T05:33:05.252Z,1184.00
2022-08-26T05:34:00.126Z,1257.00
2022-08-26T05:36:10.729Z,1435.00
2022-08-26T05:37:11.414Z,1430.00
2022-08-26T05:38:39.240Z,1460.00
2022-08-26T05:39:11.473Z,1489.00
2022-08-26T05:41:27.737Z,1523.00
2022-08-26T05:43:28.430Z,1568.00
2022-08-26T05:45:46.200Z,1623.00
2022-08-26T05:46:46.519Z,1631.00
2022-08-26T05:47:46.212Z,1654.00
2022-08-26T05:48:46.287Z,1679.00
2022-08-26T05:49:51.581Z,1705.00
2022-08-26T05:51:42.169Z,1802.00
2022-08-26T05:52:43.128Z,1812.00
2022-08-26T05:53:43.753Z,1845.00
2022-08-26T05:55:56.577Z,1932.00
2022-08-26T05:56:55.430Z,1942.00
2022-08-26T05:58:48.337Z,2016.00
2022-08-26T06:01:19.998Z,2089.00
2022-08-26T06:03:14.980Z,2229.00
2022-08-26T06:05:26.979Z,2245.00
2022-08-26T06:06:33.714Z,2255.00
2022-08-26T06:07:27.572Z,2066.00
2022-08-26T06:12:29.786Z,2931.00
2022-08-26T06:13:31.874Z,3075.00
2022-08-26T06:14:29.978Z,2978.00
2022-08-26T06:16:20.257Z,3096.00
2022-08-26T06:17:59.197Z,3331.00
2022-08-26T06:19:42.350Z,2880.00
2022-08-26T06:19:47.345Z,2651.00
2022-08-26T06:22:00.873Z,2729.00
2022-08-26T06:23:01.681Z,2735.00
2022-08-26T06:24:01.761Z,2754.00
2022-08-26T06:27:03.343Z,2853.00
2022-08-26T06:29:24.119Z,2895.00
2022-08-26T06:32:21.053Z,2882.00
2022-08-26T06:33:22.079Z,2876.00
2022-08-26T06:34:22.336Z,2877.00
2022-08-26T06:35:22.853Z,2885.00
2022-08-26T06:36:28.585Z,2899.00
2022-08-26T06:39:15.860Z,2943.00
2022-08-26T06:40:16.927Z,2942.00
2022-08-26T06:41:16.974Z,2925.00
2022-08-26T06:42:19.310Z,2899.00
2022-08-26T06:44:09.380Z,2524.00
2022-08-26T06:45:10.354Z,2522.00
2022-08-26T06:46:10.486Z,2517.00
2022-08-26T06:47:10.337Z,2522.00
2022-08-26T06:48:10.445Z,2530.00
2022-08-26T06:49:10.533Z,2537.00
2022-08-26T06:51:25.950Z,2577.00
2022-08-26T06:55:02.709Z,2856.00
2022-08-26T06:56:04.174Z,2880.00
2022-08-26T06:57:03.552Z,2802.00
2022-08-26T06:58:03.539Z,2634.00
2022-08-26T06:59:03.683Z,2535.00
2022-08-26T07:00:04.490Z,2478.00
2022-08-26T07:01:11.429Z,2404.00
2022-08-26T07:02:03.486Z,2329.00
2022-08-26T07:03:03.524Z,2264.00
2022-08-26T07:04:04.348Z,2227.00
2022-08-26T07:06:15.536Z,2219.00
2022-08-26T07:06:21.504Z,2242.00
2022-08-26T07:07:21.968Z,2290.00
2022-08-26T07:09:15.413Z,2474.00
2022-08-26T07:11:08.007Z,2590.00
2022-08-26T07:12:09.016Z,2587.00
2022-08-26T07:14:02.020Z,2611.00
2022-08-26T07:15:03.047Z,2702.00
2022-08-26T07:16:04.223Z,2267.00
2022-08-26T07:17:03.066Z,3229.00
2022-08-26T07:18:03.130Z,3676.00
2022-08-26T07:19:03.451Z,3805.00
2022-08-26T07:20:02.949Z,4302.00
2022-08-26T07:21:02.987Z,3955.00
2022-08-26T07:22:03.519Z,3537.00
2022-08-26T07:23:04.082Z,3473.00
2022-08-26T07:25:19.210Z,4004.00
2022-08-26T07:26:19.608Z,3549.00
2022-08-26T07:27:19.618Z,5016.00
2022-08-26T07:28:19.681Z,5159.00
2022-08-26T07:30:32.854Z,3850.00
2022-08-26T07:31:39.359Z,3751.00
2022-08-26T07:32:34.446Z,3542.00
2022-08-26T07:33:33.804Z,3373.00
2022-08-26T07:35:44.163Z,3163.00
2022-08-26T07:40:17.635Z,3334.00
2022-08-26T07:42:50.951Z,3157.00
2022-08-26T07:45:13.955Z,3165.00
2022-08-26T07:48:18.551Z,3308.00
2022-08-26T07:50:48.932Z,3432.00
2022-08-26T07:52:27.034Z,3889.00
2022-08-26T07:54:19.888Z,4428.00
2022-08-26T07:56:11.330Z,4866.00
2022-08-26T07:58:04.828Z,5354.00
2022-08-26T07:59:14.089Z,4655.00
2022-08-26T08:01:11.123Z,5821.00
2022-08-26T08:03:44.815Z,7613.00
2022-08-26T08:05:58.679Z,8061.00
2022-08-26T08:06:59.696Z,8058.00
2022-08-26T08:08:17.347Z,7516.00
2022-08-26T08:08:59.664Z,8049.00
2022-08-26T08:09:59.640Z,9314.00
2022-08-26T08:10:59.745Z,9438.00
2022-08-26T08:11:59.626Z,9400.00
2022-08-26T08:12:59.646Z,7860.00
2022-08-26T08:13:59.609Z,7866.00
2022-08-26T08:14:59.591Z,8301.00
2022-08-26T08:15:59.558Z,8831.00
2022-08-26T08:16:59.632Z,9269.00
2022-08-26T08:18:15.299Z,9736.00
2022-08-26T08:18:59.581Z,10037.00
2022-08-26T08:19:59.565Z,10280.00
2022-08-26T08:21:19.541Z,9291.00
2022-08-26T08:22:01.909Z,14691.00
2022-08-26T08:24:57.079Z,11274.00
2022-08-26T08:25:58.121Z,11118.00
2022-08-26T08:26:58.043Z,11081.00
2022-08-26T08:27:58.029Z,11262.00
2022-08-26T08:28:58.012Z,12196.00
2022-08-26T08:29:58.052Z,12625.00
2022-08-26T08:30:58.083Z,13160.00
2022-08-26T08:31:58.761Z,13361.00
2022-08-26T08:32:57.987Z,12579.00
2022-08-26T08:33:58.000Z,12502.00
2022-08-26T08:34:57.959Z,11733.00
2022-08-26T08:35:57.968Z,11816.00
2022-08-26T08:36:57.965Z,11831.00
2022-08-26T08:37:57.977Z,11647.00
2022-08-26T08:38:58.007Z,11214.00
2022-08-26T08:43:25.251Z,11575.00
2022-08-26T08:44:10.465Z,11680.00
2022-08-26T08:46:43.539Z,11454.00
2022-08-26T08:47:03.952Z,11464.00
2022-08-26T08:48:03.933Z,11623.00
2022-08-26T08:50:57.750Z,11811.00
2022-08-26T08:51:58.247Z,11026.00
2022-08-26T08:52:58.400Z,13354.00
2022-08-26T08:53:58.421Z,11945.00
2022-08-26T08:54:57.964Z,11196.00
2022-08-26T08:55:57.972Z,10544.00
2022-08-26T08:57:12.646Z,11384.00
2022-08-26T08:58:02.047Z,10836.00
2022-08-26T08:58:57.988Z,10619.00
2022-08-26T09:00:14.576Z,10508.00
2022-08-26T09:01:35.789Z,10600.00
2022-08-26T09:02:54.440Z,11348.00
2022-08-26T09:02:59.397Z,12193.00
2022-08-26T09:03:59.412Z,12897.00
2022-08-26T09:05:31.245Z,13355.00
2022-08-26T09:05:59.378Z,13734.00
2022-08-26T09:08:19.827Z,12495.00
2022-08-26T09:10:28.112Z,13321.00
2022-08-26T09:12:40.514Z,17144.00
2022-08-26T09:14:54.766Z,76680.00
2022-08-26T09:15:54.990Z,69291.00
2022-08-26T09:16:56.049Z,32015.00
2022-08-26T09:17:54.656Z,20347.00
2022-08-26T09:18:54.778Z,21017.00
2022-08-26T09:19:54.630Z,19356.00
2022-08-26T09:20:54.660Z,17398.00
2022-08-26T09:21:54.749Z,15722.00
2022-08-26T09:22:55.190Z,14379.00
2022-08-26T09:23:54.607Z,13561.00
2022-08-26T09:24:55.652Z,12763.00
2022-08-26T09:26:54.563Z,12067.00
2022-08-26T09:27:54.634Z,11779.00
2022-08-26T09:28:54.806Z,11463.00
2022-08-26T09:29:59.911Z,11305.00
2022-08-26T09:30:54.568Z,11244.00
2022-08-26T09:31:54.667Z,11356.00
2022-08-26T09:32:56.729Z,11794.00
2022-08-26T09:35:04.967Z,13072.00
2022-08-26T09:36:05.854Z,12877.00
2022-08-26T09:37:05.902Z,13262.00
2022-08-26T09:38:07.000Z,13495.00
2022-08-26T09:39:05.835Z,13969.00
2022-08-26T09:41:00.952Z,15524.00
2022-08-26T09:42:19.172Z,15832.00
2022-08-26T09:44:17.517Z,15964.00
2022-08-26T09:47:20.520Z,19587.00
2022-08-26T09:49:36.056Z,13948.00
2022-08-26T09:51:24.500Z,13435.00
2022-08-26T09:52:25.422Z,12222.00
2022-08-26T09:54:15.864Z,16559.00
2022-08-26T09:55:56.040Z,14575.00
2022-08-26T09:56:16.797Z,17753.00
2022-08-26T09:57:16.788Z,20242.00
2022-08-26T09:58:16.978Z,18172.00
2022-08-26T10:00:07.228Z,22348.00
2022-08-26T10:02:29.755Z,75315.00
2022-08-26T10:06:59.571Z,80178.00
2022-08-26T10:08:00.622Z,77100.00
2022-08-26T10:09:00.442Z,76678.00
2022-08-26T10:10:00.448Z,79881.00
2022-08-26T10:11:00.440Z,79334.00
2022-08-26T10:12:00.461Z,79285.00
2022-08-26T10:13:00.649Z,76072.00
2022-08-26T10:14:00.482Z,75824.00
2022-08-26T10:15:00.444Z,75437.00
2022-08-26T10:16:00.635Z,77691.00
2022-08-26T10:17:00.393Z,79869.00
2022-08-26T10:18:00.371Z,78046.00
2022-08-26T10:19:00.822Z,79603.00
2022-08-26T10:20:00.638Z,78945.00
2022-08-26T10:21:00.326Z,76525.00
2022-08-26T10:22:00.359Z,77810.00
2022-08-26T10:23:00.677Z,78505.00
2022-08-26T10:24:07.565Z,79238.00
2022-08-26T10:25:00.356Z,76505.00
2022-08-26T10:26:00.317Z,73960.00
2022-08-26T10:27:00.669Z,76993.00
2022-08-26T10:28:02.075Z,78319.00
2022-08-26T10:29:10.861Z,78412.00
2022-08-26T10:30:00.311Z,80033.00
2022-08-26T10:31:23.025Z,77619.00
2022-08-26T10:32:07.915Z,77361.00
2022-08-26T10:33:00.265Z,80350.00
2022-08-26T10:34:00.753Z,80140.00
2022-08-26T10:35:00.327Z,80179.00
2022-08-26T10:36:06.194Z,79292.00
2022-08-26T10:37:14.567Z,73768.00
2022-08-26T10:38:00.269Z,71713.00
2022-08-26T10:39:00.205Z,40996.00
2022-08-26T10:40:00.251Z,35915.00
2022-08-26T10:41:00.172Z,28235.00
2022-08-26T10:42:00.166Z,23394.00
2022-08-26T10:43:00.314Z,19939.00
2022-08-26T10:44:00.303Z,34494.00
2022-08-26T10:45:00.803Z,28861.00
2022-08-26T10:46:00.234Z,26440.00
2022-08-26T10:47:07.569Z,12705.00
2022-08-26T10:48:00.174Z,17802.00
2022-08-26T10:49:00.233Z,66706.00
2022-08-26T10:50:03.283Z,29304.00
2022-08-26T10:51:00.319Z,21037.00
2022-08-26T10:52:16.514Z,24262.00
2022-08-26T10:53:00.163Z,27589.00
2022-08-26T10:54:22.094Z,19445.00
2022-08-26T10:55:59.763Z,27020.00
2022-08-26T10:56:05.684Z,13306.00
2022-08-26T10:57:05.693Z,17226.00
2022-08-26T10:58:09.087Z,77751.00
2022-08-26T11:00:02.147Z,76637.00
2022-08-26T11:01:53.580Z,73144.00
2022-08-26T11:04:38.058Z,73661.00
2022-08-26T11:06:50.927Z,76351.00
2022-08-26T11:07:50.676Z,77462.00
2022-08-26T11:08:50.685Z,78513.00
2022-08-26T11:09:50.693Z,79103.00
2022-08-26T11:10:51.674Z,80746.00
2022-08-26T11:11:50.636Z,76230.00
2022-08-26T11:12:50.621Z,81665.00
2022-08-26T11:13:50.598Z,75669.00
2022-08-26T11:14:56.133Z,73641.00
2022-08-26T11:15:51.124Z,76240.00
2022-08-26T11:16:52.786Z,78088.00
2022-08-26T11:18:17.148Z,76669.00
2022-08-26T11:18:51.315Z,75394.00
2022-08-26T11:20:00.681Z,73603.00
2022-08-26T11:20:50.631Z,77097.00
2022-08-26T11:21:56.766Z,74209.00
2022-08-26T11:24:36.626Z,78490.00
2022-08-26T11:26:20.378Z,75917.00
2022-08-26T11:26:56.375Z,72306.00
2022-08-26T11:27:37.525Z,81600.00
2022-08-26T11:29:51.814Z,79605.00
2022-08-26T11:30:57.806Z,81485.00
2022-08-26T11:31:52.197Z,81234.00
2022-08-26T11:32:52.132Z,76769.00
2022-08-26T11:33:52.164Z,73625.00
2022-08-26T11:34:52.083Z,75955.00
2022-08-26T11:35:52.387Z,78614.00
2022-08-26T11:36:53.099Z,81307.00
2022-08-26T11:37:52.758Z,80448.00
2022-08-26T11:38:52.080Z,79759.00
2022-08-26T11:41:03.364Z,25237.00
2022-08-26T11:42:04.371Z,25212.00
2022-08-26T11:43:04.688Z,24800.00
2022-08-26T11:44:12.693Z,24675.00
2022-08-26T11:45:12.606Z,24696.00
2022-08-26T11:46:04.406Z,24545.00
2022-08-26T11:47:04.314Z,23846.00
2022-08-26T11:48:04.264Z,9990.00
2022-08-26T11:49:04.321Z,83959.00
2022-08-26T11:50:04.298Z,77025.00
2022-08-26T11:51:04.432Z,74124.00
2022-08-26T11:52:05.484Z,75076.00
2022-08-26T11:53:04.236Z,77512.00
2022-08-26T11:54:04.230Z,75322.00
2022-08-26T11:55:04.367Z,77162.00
2022-08-26T11:57:15.413Z,75500.00
2022-08-26T11:58:26.033Z,73833.00
2022-08-26T11:59:15.562Z,73869.00
2022-08-26T12:00:20.490Z,74680.00
2022-08-26T12:01:15.782Z,76032.00
2022-08-26T12:02:16.084Z,75991.00
2022-08-26T12:03:15.607Z,78857.00
2022-08-26T12:04:15.726Z,79276.00
2022-08-26T12:06:06.025Z,78927.00
2022-08-26T12:08:18.170Z,75480.00
2022-08-26T12:09:34.601Z,75825.00
2022-08-26T12:10:18.800Z,79639.00
2022-08-26T12:11:18.841Z,77227.00
2022-08-26T12:12:18.844Z,73623.00
2022-08-26T12:13:29.514Z,73909.00
2022-08-26T12:14:18.773Z,73983.00
2022-08-26T12:15:18.777Z,61926.00
2022-08-26T12:16:20.277Z,24129.00
2022-08-26T12:17:18.760Z,20253.00
2022-08-26T12:18:28.637Z,18581.00
2022-08-26T12:19:18.747Z,13906.00
2022-08-26T12:20:18.811Z,12304.00
2022-08-26T12:22:09.169Z,75195.00
2022-08-26T12:23:10.170Z,69711.00
2022-08-26T12:24:10.145Z,36712.00
2022-08-26T12:25:10.090Z,64843.00
2022-08-26T12:26:16.228Z,24352.00
2022-08-26T12:27:41.624Z,19183.00
2022-08-26T12:28:10.251Z,16289.00
2022-08-26T12:29:19.894Z,15658.00
2022-08-26T12:30:12.380Z,16272.00
2022-08-26T12:31:10.059Z,16398.00
2022-08-26T12:32:10.087Z,15561.00
2022-08-26T12:33:22.529Z,14271.00
2022-08-26T12:36:14.151Z,10638.00
2022-08-26T12:37:15.072Z,10767.00
2022-08-26T12:39:29.863Z,8626.00
2022-08-26T12:41:21.134Z,8072.00
2022-08-26T12:42:20.821Z,8755.00
2022-08-26T12:45:08.591Z,4266.00
2022-08-26T12:46:08.439Z,4484.00
2022-08-26T12:47:08.649Z,4143.00
2022-08-26T12:48:58.782Z,3133.00
2022-08-26T12:49:59.695Z,3320.00
2022-08-26T12:50:59.823Z,2972.00
2022-08-26T12:52:00.459Z,2790.00
2022-08-26T12:52:59.625Z,2675.00
2022-08-26T12:53:59.626Z,2615.00
2022-08-26T12:54:59.677Z,2457.00
2022-08-26T12:55:59.610Z,2187.00
2022-08-26T12:56:59.613Z,2095.00
2022-08-26T12:57:59.646Z,1885.00
2022-08-26T12:58:59.805Z,1622.00
2022-08-26T12:59:59.602Z,1437.00
2022-08-26T13:00:59.671Z,1370.00
2022-08-26T13:01:59.898Z,1333.00
2022-08-26T13:02:59.824Z,1497.00
2022-08-26T13:03:59.568Z,1535.00
2022-08-26T13:05:00.944Z,1503.00
2022-08-26T13:05:59.753Z,1561.00
2022-08-26T13:06:59.509Z,1548.00
2022-08-26T13:07:59.581Z,1524.00
2022-08-26T13:08:59.490Z,1507.00
2022-08-26T13:09:59.534Z,1490.00
2022-08-26T13:10:59.543Z,1498.00
2022-08-26T13:12:08.684Z,1561.00
2022-08-26T13:12:59.450Z,1498.00
2022-08-26T13:13:59.475Z,1408.00
2022-08-26T13:14:59.681Z,1476.00
2022-08-26T13:16:01.030Z,1586.00
2022-08-26T13:16:59.426Z,1636.00
2022-08-26T13:17:59.442Z,1585.00
2022-08-26T13:18:59.410Z,1608.00
2022-08-26T13:20:03.444Z,1559.00
2022-08-26T13:20:59.352Z,1590.00
2022-08-26T13:22:20.361Z,1597.00
2022-08-26T13:23:10.363Z,1630.00
2022-08-26T13:24:02.573Z,1724.00
2022-08-26T13:24:59.993Z,1691.00
2022-08-26T13:25:59.333Z,1822.00
2022-08-26T13:26:59.320Z,1911.00
2022-08-26T13:27:59.326Z,1944.00
2022-08-26T13:29:01.406Z,2070.00
2022-08-26T13:30:00.005Z,1966.00
2022-08-26T13:30:59.275Z,2521.00
2022-08-26T13:32:33.005Z,2695.00
2022-08-26T13:32:59.279Z,2758.00
2022-08-26T13:35:12.507Z,3464.00
2022-08-26T13:36:09.643Z,3368.00
2022-08-26T13:37:09.603Z,3538.00
2022-08-26T13:38:09.619Z,3658.00
2022-08-26T13:39:10.856Z,3729.00
2022-08-26T13:40:11.548Z,3771.00
2022-08-26T13:41:09.544Z,3891.00
2022-08-26T13:42:09.608Z,4023.00
2022-08-26T13:43:10.018Z,4136.00
2022-08-26T13:45:00.293Z,4801.00
2022-08-26T13:46:01.283Z,4639.00
2022-08-26T13:47:01.233Z,4815.00
2022-08-26T13:48:01.315Z,5049.00
2022-08-26T13:49:53.789Z,5909.00
2022-08-26T13:50:53.570Z,5693.00
2022-08-26T13:51:53.551Z,5929.00
2022-08-26T13:52:53.593Z,6190.00
2022-08-26T13:53:53.509Z,6461.00
2022-08-26T13:54:53.564Z,6816.00
2022-08-26T13:55:54.481Z,7164.00
2022-08-26T13:56:53.507Z,7545.00
2022-08-26T13:57:53.479Z,7917.00
2022-08-26T13:58:53.479Z,8188.00
2022-08-26T13:59:53.473Z,8217.00
2022-08-26T14:00:53.629Z,8522.00
2022-08-26T14:01:54.505Z,9046.00
2022-08-26T14:02:53.544Z,9282.00
2022-08-26T14:04:26.937Z,9071.00
2022-08-26T14:04:53.406Z,8927.00
2022-08-26T14:05:53.419Z,8805.00
2022-08-26T14:06:53.483Z,8780.00
2022-08-26T14:07:53.366Z,8780.00
2022-08-26T14:08:53.376Z,8738.00
2022-08-26T14:09:53.523Z,8619.00
2022-08-26T14:10:53.362Z,8345.00
2022-08-26T14:11:54.308Z,8080.00
2022-08-26T14:12:53.356Z,7737.00
2022-08-26T14:13:53.387Z,7426.00
2022-08-26T14:14:53.798Z,7099.00
2022-08-26T14:15:55.916Z,6741.00